AntlersSmtRWIS Atmospheric Data: 05/15/2019 Summary  Detailed Graphs  Station List

  Temperature     Wind Precipitation Visibility
Timestamp Air Wet
Bulb
Dew-
point
24-hr
Max
24-hr
Min
Relative
Humidity
Atmospheric
Pressure
Avg
Speed
Avg
Dir
Spot
Speed
Spot
Dir
Max
Speed
Max
Dir
  Rate Situation Start End 1 hr 3 hr 6 hr 12 hr 24 hr   Situation
Date Time °F °F °F °F °F % in Hg mph ° mph ° mph ° Y/N in/hr text Date Time Date Time in in in in in mi text
05/15/2019 12:01 AM 60.26 53.42 48.02 69.44 53.42 63.0 Not Reported 1.12 NW 1.57 NW 2.24 NW No 0.000 No Precipitation     0.000 0.000 0.000 0.000 0.000 Not Reported Not Reported
05/15/2019 12:15 AM 59.90 53.42 48.20 69.44 53.42 64.0 Not Reported 1.34 NW 0.00 NE 3.36 NW No 0.000 No Precipitation     0.000 0.000 0.000 0.000 0.000 Not Reported Not Reported
05/15/2019 12:31 AM 59.90 53.78 48.74 69.44 53.42 66.0 Not Reported 0.45 N 0.00 N 2.91 N No 0.000 No Precipitation     0.000 0.000 0.000 0.000 0.000 Not Reported Not Reported
05/15/2019 12:47 AM 59.36 53.42 48.92 69.44 53.42 68.0 Not Reported 0.67 NE 0.00 E 1.79 N No 0.000 No Precipitation     0.000 0.000 0.000 0.000 0.000 Not Reported Not Reported
05/15/2019 01:00 AM 60.08 53.96 49.10 69.44 53.42 66.0 Not Reported 4.25 N 4.25 N 4.70 N No 0.000 No Precipitation     0.000 0.000 0.000 0.000 0.000 Not Reported Not Reported
05/15/2019 01:16 AM 59.54 53.96 49.64 69.44 53.42 69.0 Not Reported 1.57 N 2.24 N 4.25 N No 0.000 No Precipitation     0.000 0.000 0.000 0.000 0.000 Not Reported Not Reported
05/15/2019 01:30 AM 59.36 53.78 49.46 69.44 53.42 69.0 Not Reported 0.45 N 1.57 N 2.46 NW No 0.000 No Precipitation     0.000 0.000 0.000 0.000 0.000 Not Reported Not Reported
05/15/2019 01:45 AM 58.82 53.42 49.10 69.44 53.42 69.0 Not Reported 2.91 N 1.57 N 4.47 N No 0.000 No Precipitation     0.000 0.000 0.000 0.000 0.000 Not Reported Not Reported
05/15/2019 02:01 AM 58.28 53.24 49.28 69.44 53.42 71.0 Not Reported 0.00 SE 0.00 S 1.12 N No 0.000 No Precipitation     0.000 0.000 0.000 0.000 0.000 Not Reported Not Reported
05/15/2019 02:18 AM 58.64 53.24 49.10 69.44 53.42 70.0 Not Reported 1.79 SE 1.34 SE 0.67 S No 0.000 No Precipitation     0.000 0.000 0.000 0.000 0.000 Not Reported Not Reported
05/15/2019 02:31 AM 58.46 53.06 48.74 69.44 53.42 69.0 Not Reported 2.24 N 2.91 N 3.13 NW No 0.000 No Precipitation     0.000 0.000 0.000 0.000 0.000 Not Reported Not Reported
05/15/2019 02:47 AM 57.92 52.88 48.92 69.44 53.42 71.0 Not Reported 1.34 NW 0.45 W 3.36 N No 0.000 No Precipitation     0.000 0.000 0.000 0.000 0.000 Not Reported Not Reported
05/15/2019 03:00 AM 57.92 52.70 48.74 69.44 53.42 71.0 Not Reported 0.00 SW 0.22 W 2.46 NW No 0.000 No Precipitation     0.000 0.000 0.000 0.000 0.000 Not Reported Not Reported
05/15/2019 03:15 AM 58.46 53.24 48.92 69.44 53.42 70.0 Not Reported 1.34 N 0.22 NE 1.57 E No 0.000 No Precipitation     0.000 0.000 0.000 0.000 0.000 Not Reported Not Reported
05/15/2019 03:31 AM 57.92 52.88 48.92 69.44 53.42 72.0 Not Reported 0.22 E 0.22 SE 1.57 E No 0.000 No Precipitation     0.000 0.000 0.000 0.000 0.000 Not Reported Not Reported
05/15/2019 03:47 AM 57.38 52.70 48.92 69.44 53.42 73.0 Not Reported 0.22 SE 0.00 SE 0.89 NE No 0.000 No Precipitation     0.000 0.000 0.000 0.000 0.000 Not Reported Not Reported
05/15/2019 04:02 AM 57.38 52.70 49.10 69.44 53.42 73.0 Not Reported 0.67 SE 0.00 SE 1.34 SE No 0.000 No Precipitation     0.000 0.000 0.000 0.000 0.000 Not Reported Not Reported
05/15/2019 04:16 AM 56.84 52.52 49.10 69.44 53.42 75.0 Not Reported 0.22 SE 0.00 SE 0.45 S No 0.000 No Precipitation     0.000 0.000 0.000 0.000 0.000 Not Reported Not Reported
05/15/2019 04:30 AM 56.66 52.88 50.00 69.44 53.42 78.0 Not Reported 0.45 E 0.45 SE 0.89 S No 0.000 No Precipitation     0.000 0.000 0.000 0.000 0.000 Not Reported Not Reported
05/15/2019 04:46 AM 56.30 52.88 50.36 69.44 53.42 80.0 Not Reported 0.45 NE 0.00 NE 0.89 S No 0.000 No Precipitation     0.000 0.000 0.000 0.000 0.000 Not Reported Not Reported
05/15/2019 05:00 AM 55.76 53.24 51.44 69.44 53.42 84.0 Not Reported 0.45 NE 2.68 N 1.34 NE No 0.000 No Precipitation     0.000 0.000 0.000 0.000 0.000 Not Reported Not Reported
05/15/2019 05:15 AM 56.12 53.78 51.98 69.44 53.42 85.0 Not Reported 3.13 N 1.79 N 2.68 N No 0.000 No Precipitation     0.000 0.000 0.000 0.000 0.000 Not Reported Not Reported
05/15/2019 05:33 AM 55.40 53.42 51.80 69.44 53.42 87.0 Not Reported 1.12 NE 1.34 NE 2.46 E No 0.000 No Precipitation     0.000 0.000 0.000 0.000 0.000 Not Reported Not Reported
05/15/2019 05:46 AM 55.40 53.60 51.98 69.44 53.42 88.0 Not Reported 1.12 NE 0.89 NE 3.36 N No 0.000 No Precipitation     0.000 0.000 0.000 0.000 0.000 Not Reported Not Reported
05/15/2019 06:03 AM 55.40 53.42 51.80 69.44 53.42 87.0 Not Reported 2.46 N 2.01 N 3.13 N No 0.000 No Precipitation     0.000 0.000 0.000 0.000 0.000 Not Reported Not Reported
05/15/2019 06:15 AM 55.22 53.06 51.44 69.44 53.42 87.0 Not Reported 2.46 N 2.01 N 3.13 N No 0.000 No Precipitation     0.000 0.000 0.000 0.000 0.000 Not Reported Not Reported
05/15/2019 06:32 AM 55.22 53.06 51.44 69.44 53.42 87.0 Not Reported 2.24 N 0.67 NE 3.13 N No 0.000 No Precipitation     0.000 0.000 0.000 0.000 0.000 Not Reported Not Reported
05/15/2019 06:47 AM 54.86 52.88 51.26 69.44 53.42 87.0 Not Reported 1.57 N 2.46 N 4.03 N No 0.000 No Precipitation     0.000 0.000 0.000 0.000 0.000 Not Reported Not Reported
05/15/2019 07:01 AM 54.86 52.52 50.90 69.44 53.78 86.0 Not Reported 2.68 N 2.24 N 5.37 N No 0.000 No Precipitation     0.000 0.000 0.000 0.000 0.000 Not Reported Not Reported
05/15/2019 07:17 AM 54.86 52.52 50.72 69.44 54.32 85.0 Not Reported 2.91 NW 3.36 N 5.37 N No 0.000 No Precipitation     0.000 0.000 0.000 0.000 0.000 Not Reported Not Reported
05/15/2019 07:31 AM 54.68 52.88 51.44 69.44 54.68 88.0 Not Reported 0.67 NW 0.22 W 2.24 N No 0.000 No Precipitation     0.000 0.000 0.000 0.000 0.000 Not Reported Not Reported
05/15/2019 07:45 AM 55.40 53.06 51.26 69.44 54.68 85.0 Not Reported 4.70 NW 3.80 NW 2.24 NW No 0.000 No Precipitation     0.000 0.000 0.000 0.000 0.000 Not Reported Not Reported
05/15/2019 08:01 AM 55.58 53.24 51.08 69.44 54.68 85.0 Not Reported 3.58 N 4.03 N 6.04 N No 0.000 No Precipitation     0.000 0.000 0.000 0.000 0.000 Not Reported Not Reported
05/15/2019 08:19 AM 55.40 53.24 51.80 69.44 54.68 87.0 Not Reported 1.79 S 1.79 S 4.03 N No 0.000 No Precipitation     0.000 0.000 0.000 0.000 0.000 Not Reported Not Reported
05/15/2019 08:30 AM 55.94 53.42 51.62 69.44 54.68 85.0 Not Reported 6.93 SE 7.38 SE 9.17 SE No 0.000 No Precipitation     0.000 0.000 0.000 0.000 0.000 Not Reported Not Reported
05/15/2019 08:46 AM 55.40 53.24 51.62 69.44 54.68 86.0 Not Reported 10.07 SE 7.61 SE 11.86 SE Yes 0.085 Rain Moderate 05/15/2019 12:39 AM   0.008 0.008 0.008 0.008 0.008 Not Reported Not Reported
05/15/2019 09:00 AM 54.32 52.34 50.72 69.44 54.32 87.0 Not Reported 11.86 SE 10.74 E 14.32 SE Yes 0.085 Rain Moderate 05/15/2019 12:39 AM   0.028 0.028 0.028 0.028 0.028 Not Reported Not Reported
05/15/2019 09:19 AM 53.60 51.98 50.54 69.44 53.42 89.0 Not Reported 6.93 SE 5.82 E 15.21 E Yes 0.043 Rain Slight 05/15/2019 01:16 AM   0.051 0.051 0.051 0.051 0.051 Not Reported Not Reported
05/15/2019 09:31 AM 53.24 51.80 50.90 69.44 53.06 91.0 Not Reported 6.71 SE 6.26 S 10.74 SE Yes 0.085 Rain Moderate 05/15/2019 01:16 AM   0.071 0.071 0.071 0.071 0.071 Not Reported Not Reported
05/15/2019 09:49 AM 52.52 51.62 50.72 69.44 52.34 93.0 Not Reported 2.24 S 3.13 S 7.16 SE Yes 0.085 Rain Moderate 05/15/2019 01:16 AM   0.083 0.091 0.091 0.091 0.091 Not Reported Not Reported
05/15/2019 10:00 AM 52.34 51.26 50.54 69.44 51.98 93.0 Not Reported 5.14 SE 3.58 SW 8.50 SE Yes 0.128 Rain Moderate 05/15/2019 01:16 AM   0.091 0.118 0.118 0.118 0.118 Not Reported Not Reported
05/15/2019 10:15 AM 52.52 51.62 50.90 69.44 51.98 94.0 Not Reported 4.92 SE 2.68 S 6.04 SE Yes 0.128 Rain Moderate 05/15/2019 01:16 AM   0.102 0.150 0.150 0.150 0.150 Not Reported Not Reported
05/15/2019 10:30 AM 52.34 51.44 50.72 69.44 51.98 94.0 Not Reported 2.46 SE 2.91 W 6.26 SE Yes 0.128 Rain Moderate 05/15/2019 01:16 AM   0.110 0.181 0.181 0.181 0.181 Not Reported Not Reported
05/15/2019 10:45 AM 52.52 51.80 51.26 69.44 51.98 95.0 Not Reported 5.37 SE 5.37 SE 8.50 SE Yes 0.128 Rain Moderate 05/15/2019 01:16 AM   0.122 0.209 0.209 0.209 0.209 Not Reported Not Reported
05/15/2019 11:00 AM 53.06 52.34 51.80 69.44 51.98 95.0 Not Reported 6.49 SE 3.58 SE 8.72 SE Yes 0.085 Rain Moderate 05/15/2019 01:16 AM   0.118 0.236 0.236 0.236 0.236 Not Reported Not Reported
05/15/2019 11:18 AM 53.42 52.52 51.98 69.44 51.98 94.0 Not Reported 2.46 SE 3.58 SE 7.38 SE Yes 0.085 Rain Moderate 05/15/2019 01:16 AM   0.110 0.268 0.268 0.268 0.268 Not Reported Not Reported
05/15/2019 11:30 AM 53.24 52.34 51.62 69.44 51.98 94.0 Not Reported 6.26 SE 5.14 SE 7.61 S Yes 0.085 Rain Moderate 05/15/2019 01:16 AM   0.110 0.291 0.291 0.291 0.291 Not Reported Not Reported
05/15/2019 11:45 AM 53.06 52.16 51.44 69.44 51.98 94.0 Not Reported 2.46 S 10.51 SE 7.61 SE Yes 0.043 Rain Slight 05/15/2019 01:16 AM   0.102 0.307 0.315 0.315 0.315 Not Reported Not Reported
05/15/2019 12:00 PM 53.60 52.70 51.98 69.44 51.98 94.0 Not Reported 5.82 S 6.26 S 8.28 SE Yes 0.043 Rain Slight 05/15/2019 01:16 AM   0.091 0.303 0.331 0.331 0.331 Not Reported Not Reported
05/15/2019 12:15 PM 53.06 51.98 51.26 69.44 51.98 93.0 Not Reported 2.01 S 6.26 SE 8.72 SE Yes 0.043 Rain Slight 05/15/2019 01:16 AM   0.083 0.303 0.350 0.350 0.350 Not Reported Not Reported
05/15/2019 12:31 PM 53.42 52.34 51.62 69.44 51.98 93.0 Not Reported 3.58 S 8.28 SE 8.95 S Yes 0.085 Rain Moderate 05/15/2019 01:16 AM   0.079 0.303 0.374 0.374 0.374 Not Reported Not Reported
05/15/2019 12:46 PM 53.24 52.16 51.44 69.44 51.98 93.0 Not Reported 3.13 SE 4.25 SE 9.40 SE Yes 0.184 Rain Moderate 05/15/2019 01:16 AM   0.091 0.315 0.402 0.402 0.402 Not Reported Not Reported
05/15/2019 01:01 PM 53.42 52.34 51.44 69.44 51.98 92.0 Not Reported 6.26 S 7.38 SE 9.40 SE Yes 0.085 Rain Moderate 05/15/2019 01:16 AM   0.091 0.307 0.421 0.421 0.421 Not Reported Not Reported
05/15/2019 01:15 PM 53.60 52.34 51.44 69.44 51.98 92.0 Not Reported 4.03 S 6.49 S 13.20 SE Yes 0.184 Rain Moderate 05/15/2019 01:16 AM   0.102 0.307 0.453 0.453 0.453 Not Reported Not Reported
05/15/2019 01:33 PM 53.78 52.70 51.62 69.44 51.98 92.0 Not Reported 4.70 S 5.14 S 9.40 SE Yes 0.128 Rain Moderate 05/15/2019 01:16 AM   0.110 0.307 0.492 0.492 0.492 Not Reported Not Reported
05/15/2019 01:45 PM 54.14 52.88 51.98 69.44 51.98 92.0 Not Reported 6.26 SE 7.83 SE 12.08 SE No 0.000 No Precipitation 05/15/2019 01:16 AM 05/15/2019 05:44 AM 0.102 0.295 0.508 0.508 0.508 Not Reported Not Reported
05/15/2019 02:00 PM 54.50 53.06 51.98 69.44 51.98 91.0 Not Reported 9.17 SE 7.38 SE 11.63 SE Yes 0.043 Rain Slight 05/15/2019 05:52 AM   0.102 0.295 0.531 0.531 0.531 Not Reported Not Reported
05/15/2019 02:16 PM 55.04 53.42 52.16 69.44 51.98 90.0 Not Reported 9.84 SE 11.18 SE 9.62 SE Yes 0.043 Rain Slight 05/15/2019 06:15 AM   0.083 0.276 0.543 0.543 0.543 Not Reported Not Reported
05/15/2019 02:31 PM 54.50 53.06 52.16 69.44 51.98 91.0 Not Reported 8.28 SE 10.07 SE 15.21 SE Yes 0.085 Rain Moderate 05/15/2019 06:15 AM   0.075 0.268 0.563 0.563 0.563 Not Reported Not Reported
05/15/2019 02:46 PM 54.86 53.60 52.70 69.44 51.98 92.0 Not Reported 7.16 S 5.59 SE 13.20 SE Yes 0.043 Rain Slight 05/15/2019 06:41 AM   0.067 0.264 0.567 0.579 0.579 Not Reported Not Reported
05/15/2019 03:00 PM 54.68 53.60 52.88 69.44 51.98 93.0 Not Reported 9.17 SE 2.91 SE 11.41 SE Yes 0.510 Rain Heavy 05/15/2019 06:41 AM   0.118 0.315 0.622 0.650 0.650 Not Reported Not Reported
05/15/2019 03:15 PM 54.50 53.06 52.16 69.44 51.98 91.0 Not Reported 11.86 SE 12.30 E 16.11 E Yes 0.085 Rain Moderate 05/15/2019 06:41 AM   0.177 0.370 0.669 0.720 0.720 Not Reported Not Reported
05/15/2019 03:31 PM 54.50 52.88 51.44 69.44 51.98 89.0 Not Reported 11.18 SE 10.07 SE 19.91 SE No 0.000 No Precipitation 05/15/2019 06:41 AM 05/15/2019 07:30 AM 0.165 0.362 0.665 0.728 0.728 Not Reported Not Reported
05/15/2019 03:46 PM 54.68 53.42 52.34 69.44 51.98 92.0 Not Reported 11.41 SE 9.40 SE 13.87 SE Yes 0.085 Rain Moderate 05/15/2019 07:31 AM   0.169 0.343 0.661 0.748 0.748 Not Reported Not Reported
05/15/2019 04:00 PM 54.32 52.88 51.80 69.44 51.98 91.0 Not Reported 10.29 SE 17.90 SE 17.22 SE Yes 0.128 Rain Moderate 05/15/2019 07:31 AM   0.130 0.354 0.661 0.780 0.780 Not Reported Not Reported
05/15/2019 04:15 PM 54.14 53.06 52.16 68.90 51.98 93.0 Not Reported 6.49 SE 13.65 SE 17.90 SE Yes 0.085 Rain Moderate 05/15/2019 07:31 AM   0.091 0.354 0.661 0.807 0.807 Not Reported Not Reported
05/15/2019 04:47 PM 54.32 53.06 52.88 68.90 51.98 94.0 Not Reported 6.49 SE 3.36 SE 9.17 S Yes 0.369 Rain Heavy 05/15/2019 07:31 AM   0.157 0.402 0.693 0.909 0.909 Not Reported Not Reported
05/15/2019 05:02 PM 54.68 53.42 52.52 68.90 51.98 92.0 Not Reported 10.07 SE 8.28 SE 12.53 SE Yes 0.085 Rain Moderate 05/15/2019 07:31 AM   0.154 0.402 0.701 0.937 0.937 Not Reported Not Reported
05/15/2019 05:15 PM 54.86 53.42 52.16 68.90 51.98 90.0 Not Reported 15.66 SE 3.80 S 12.08 SE No 0.000 No Precipitation 05/15/2019 09:10 AM 05/15/2019 09:15 AM 0.134 0.402 0.673 0.945 0.945 Not Reported Not Reported
05/15/2019 05:30 PM 54.86 53.24 51.80 68.54 51.98 89.0 Not Reported 6.93 S 7.61 E 14.32 S No 0.000 No Precipitation 05/15/2019 09:24 AM 05/15/2019 09:29 AM 0.110 0.382 0.654 0.945 0.945 Not Reported Not Reported
05/15/2019 05:46 PM 54.32 52.88 51.98 68.54 51.98 91.0 Not Reported 4.03 S 4.92 SE 15.21 SE No 0.000 No Precipitation 05/15/2019 09:32 AM 05/15/2019 09:41 AM 0.043 0.374 0.642 0.957 0.957 Not Reported Not Reported
05/15/2019 06:00 PM 55.04 53.06 51.62 68.54 51.98 88.0 Not Reported 8.72 SE 10.07 SE 12.08 SE No 0.000 No Precipitation 05/15/2019 09:49 AM 05/15/2019 09:54 AM 0.020 0.311 0.630 0.961 0.961 Not Reported Not Reported
05/15/2019 06:16 PM 54.68 52.88 51.62 68.18 51.98 89.0 Not Reported 6.04 SE 8.05 S 14.54 SE Yes 0.085 Rain Moderate 05/15/2019 10:01 AM   0.043 0.272 0.642 0.988 0.988 Not Reported Not Reported
05/15/2019 06:30 PM 54.32 53.06 51.98 68.00 51.98 91.0 Not Reported 7.83 SE 5.59 SE 14.09 S Yes 0.184 Rain Moderate 05/15/2019 10:01 AM   0.079 0.295 0.654 1.028 1.028 Not Reported Not Reported
05/15/2019 06:46 PM 53.96 52.88 52.16 67.82 51.98 93.0 Not Reported 3.36 S 8.28 SE 10.96 SE Yes 0.184 Rain Moderate 05/15/2019 10:01 AM   0.122 0.323 0.669 1.079 1.079 Not Reported Not Reported
05/15/2019 07:00 PM 54.14 53.06 52.34 67.64 51.98 93.0 Not Reported 4.92 SE 8.05 SE 8.95 SE Yes 0.269 Rain Moderate 05/15/2019 10:01 AM   0.177 0.354 0.709 1.138 1.138 Not Reported Not Reported
05/15/2019 07:16 PM 53.42 52.70 52.16 67.46 51.98 95.0 Not Reported 1.79 SW 3.13 SE 8.05 SE Yes 0.227 Rain Moderate 05/15/2019 10:01 AM   0.205 0.390 0.744 1.201 1.201 Not Reported Not Reported
05/15/2019 07:31 PM 53.42 52.70 52.34 67.10 51.98 95.0 Not Reported 5.37 S 2.91 SE 8.95 S Yes 0.184 Rain Moderate 05/15/2019 10:01 AM   0.209 0.402 0.752 1.244 1.244 Not Reported Not Reported
05/15/2019 07:45 PM 53.78 52.88 51.98 67.10 51.98 93.0 Not Reported 9.40 SE 9.84 SE 11.41 S Yes 0.085 Rain Moderate 05/15/2019 10:01 AM   0.185 0.362 0.760 1.264 1.264 Not Reported Not Reported
05/15/2019 08:00 PM 54.14 53.06 52.16 66.56 51.98 92.0 Not Reported 10.29 SE 10.96 SE 14.54 SE Yes 0.085 Rain Moderate 05/15/2019 10:01 AM   0.157 0.354 0.764 1.291 1.291 Not Reported Not Reported
05/15/2019 08:15 PM 53.96 53.06 52.34 66.20 51.98 94.0 Not Reported 6.93 SE 9.84 S 14.54 SE Yes 0.269 Rain Moderate 05/15/2019 10:01 AM   0.142 0.394 0.799 1.343 1.343 Not Reported Not Reported
05/15/2019 08:30 PM 54.68 53.42 52.52 66.20 51.98 92.0 Not Reported 12.30 SE 14.09 S 18.79 SE Yes 0.085 Rain Moderate 05/15/2019 10:01 AM   0.146 0.441 0.827 1.390 1.390 Not Reported Not Reported
05/15/2019 08:46 PM 54.50 53.24 52.52 65.84 51.98 92.0 Not Reported 17.22 SE 16.78 SE 18.57 SE Yes 0.227 Rain Moderate 05/15/2019 10:01 AM   0.165 0.472 0.850 1.421 1.429 Not Reported Not Reported
05/15/2019 09:03 PM 54.14 53.24 52.52 65.30 51.98 94.0 Not Reported 11.63 SE 11.41 SE 17.45 S Yes 0.326 Rain Heavy 05/15/2019 10:01 AM   0.205 0.531 0.831 1.469 1.500 Not Reported Not Reported
05/15/2019 09:16 PM 53.96 53.06 52.34 65.30 51.98 93.0 Not Reported 11.63 SE 11.18 SE 17.67 SE Yes 0.227 Rain Moderate 05/15/2019 10:01 AM   0.209 0.567 0.843 1.508 1.559 Not Reported Not Reported
05/15/2019 09:33 PM 53.78 52.88 52.16 64.58 51.98 93.0 Not Reported 13.87 SE 8.72 S 17.90 SE Yes 0.326 Rain Heavy 05/15/2019 10:01 AM   0.256 0.614 0.909 1.575 1.646 Not Reported Not Reported
05/15/2019 09:45 PM 53.96 52.88 51.98 64.22 51.98 93.0 Not Reported 13.87 SE 13.65 SE 18.79 SE Yes 0.269 Rain Moderate 05/15/2019 10:01 AM   0.272 0.622 0.945 1.606 1.697 Not Reported Not Reported
05/15/2019 10:00 PM 53.78 52.88 52.34 63.68 51.98 94.0 Not Reported 13.42 SE 8.50 SE 17.45 SE Yes 0.227 Rain Moderate 05/15/2019 10:01 AM   0.272 0.622 0.980 1.638 1.756 Not Reported Not Reported
05/15/2019 10:15 PM 53.96 52.70 51.80 62.24 51.98 92.0 Not Reported 12.75 SE 10.51 SE 18.34 SE Yes 0.269 Rain Moderate 05/15/2019 10:01 AM   0.272 0.630 1.020 1.677 1.831 Not Reported Not Reported
05/15/2019 10:30 PM 53.60 52.88 52.34 61.34 51.98 95.0 Not Reported 8.28 SE 13.65 SE 19.91 SE Yes 0.411 Rain Heavy 05/15/2019 10:01 AM   0.280 0.673 1.083 1.736 1.921 Not Reported Not Reported
05/15/2019 10:45 PM 53.60 52.70 52.16 61.34 51.98 94.0 Not Reported 6.93 SE 11.63 SE 17.90 SE Yes 0.326 Rain Heavy 05/15/2019 10:01 AM   0.299 0.728 1.094 1.783 2.000 Not Reported Not Reported
05/15/2019 11:00 PM 53.42 52.52 51.80 61.34 51.98 94.0 Not Reported 5.37 SE 7.83 SE 14.76 SE Yes 0.468 Rain Heavy 05/15/2019 10:01 AM   0.323 0.787 1.146 1.843 2.083 Not Reported Not Reported
05/15/2019 11:15 PM 53.42 52.52 51.98 60.80 51.98 94.0 Not Reported 11.63 SE 1.79 S 18.34 SE Yes 0.269 Rain Moderate 05/15/2019 10:01 AM   0.315 0.807 1.205 1.882 2.150 Not Reported Not Reported
05/15/2019 11:30 PM 53.60 52.52 51.62 60.80 51.98 92.0 Not Reported 10.96 SE 8.50 S 19.69 SE Yes 0.184 Rain Moderate 05/15/2019 10:01 AM   0.272 0.803 1.244 1.902 2.193 Not Reported Not Reported
05/15/2019 11:45 PM 53.24 52.34 51.80 60.44 51.98 94.0 Not Reported 4.25 S 4.25 SE 15.88 SE Yes 0.227 Rain Moderate 05/15/2019 10:01 AM   0.244 0.819 1.291 1.933 2.248 Not Reported Not Reported